createdAt,value
2019-02-12T00:03:10.303Z,6.17
2019-02-12T00:07:56.281Z,9.17
2019-02-12T00:12:42.287Z,5.87
2019-02-12T00:17:28.119Z,8.33
2019-02-12T00:22:14.029Z,7.13
2019-02-12T00:26:59.889Z,7.97
2019-02-12T00:31:45.755Z,6.87
2019-02-12T00:36:31.681Z,6.30
2019-02-12T00:41:17.831Z,10.03
2019-02-12T00:46:03.706Z,8.43
2019-02-12T00:50:49.523Z,6.73
2019-02-12T00:55:35.603Z,7.37
2019-02-12T01:00:21.427Z,6.80
2019-02-12T01:05:07.438Z,7.80
2019-02-12T01:09:53.436Z,7.83
2019-02-12T01:14:39.314Z,9.40
2019-02-12T01:19:25.147Z,10.47
2019-02-12T01:24:10.934Z,10.07
2019-02-12T01:28:56.664Z,6.63
2019-02-12T01:33:43.154Z,11.93
2019-02-12T01:38:28.940Z,7.40
2019-02-12T01:43:14.691Z,6.50
2019-02-12T01:48:00.503Z,7.77
2019-02-12T01:52:46.464Z,9.20
2019-02-12T01:57:32.335Z,8.50
2019-02-12T02:02:18.183Z,6.57
2019-02-12T02:07:03.853Z,8.07
2019-02-12T02:11:49.599Z,7.33
2019-02-12T02:16:35.311Z,6.97
2019-02-12T02:21:21.245Z,5.27
2019-02-12T02:26:07.020Z,5.67
2019-02-12T02:30:52.829Z,5.47
2019-02-12T02:35:38.638Z,6.37
2019-02-12T02:40:24.409Z,4.53
2019-02-12T02:45:10.931Z,7.73
2019-02-12T02:49:56.704Z,6.40
2019-02-12T02:54:42.542Z,5.70
2019-02-12T02:59:28.492Z,4.33
2019-02-12T03:04:14.330Z,4.73
2019-02-12T03:09:00.154Z,6.80
2019-02-12T03:13:45.855Z,5.00
2019-02-12T03:18:31.715Z,8.10
2019-02-12T03:23:17.423Z,6.63
2019-02-12T03:28:03.186Z,5.23
2019-02-12T03:32:48.920Z,7.50
2019-02-12T03:37:34.652Z,4.40
2019-02-12T03:42:20.373Z,7.40
2019-02-12T03:47:06.152Z,4.97
2019-02-12T03:51:51.823Z,4.50
2019-02-12T03:56:37.662Z,6.57
2019-02-12T04:01:23.675Z,9.73
2019-02-12T04:06:09.443Z,4.93
2019-02-12T04:10:55.187Z,5.00
2019-02-12T04:15:40.936Z,4.70
2019-02-12T04:20:26.625Z,4.20
2019-02-12T04:25:12.365Z,6.10
2019-02-12T04:29:58.091Z,7.63
2019-02-12T04:34:43.854Z,5.77
2019-02-12T04:39:29.539Z,3.13
2019-02-12T04:44:15.346Z,6.47
2019-02-12T04:49:01.064Z,4.43
2019-02-12T04:53:46.909Z,4.57
2019-02-12T04:58:32.631Z,6.63
2019-02-12T05:03:18.342Z,5.50
2019-02-12T05:08:04.093Z,4.43
2019-02-12T05:12:50.003Z,4.57
2019-02-12T05:17:35.731Z,6.73
2019-02-12T05:22:21.526Z,10.90
2019-02-12T05:27:07.288Z,10.07
2019-02-12T05:31:53.062Z,10.07
2019-02-12T05:36:38.770Z,8.50
2019-02-12T05:41:24.522Z,10.70
2019-02-12T05:46:10.239Z,12.40
2019-02-12T05:50:56.029Z,13.03
2019-02-12T05:55:41.792Z,11.93
2019-02-12T06:00:29.784Z,8.80
2019-02-12T06:05:29.438Z,11.43
2019-02-12T06:10:15.339Z,9.20
2019-02-12T06:15:01.341Z,8.43
2019-02-12T06:19:47.043Z,7.97
2019-02-12T06:24:32.821Z,12.57
2019-02-12T06:29:18.632Z,8.37
2019-02-12T06:34:04.513Z,6.80
2019-02-12T06:38:50.347Z,7.03
2019-02-12T06:43:36.119Z,11.73
2019-02-12T06:48:21.881Z,9.33
2019-02-12T06:53:12.530Z,8.97
2019-02-12T06:57:56.914Z,12.27
2019-02-12T07:03:08.231Z,6.93
2019-02-12T07:08:32.651Z,16.30
2019-02-12T07:13:40.000Z,17.97
2019-02-12T07:19:02.290Z,9.30
2019-02-12T07:24:30.570Z,10.77
2019-02-12T07:29:49.279Z,8.00
2019-02-12T07:35:28.196Z,6.50
2019-02-12T07:40:24.904Z,11.10
2019-02-12T07:45:32.834Z,10.73
2019-02-12T07:51:16.708Z,8.30
2019-02-12T07:56:26.671Z,11.30
2019-02-12T08:01:40.099Z,10.63
2019-02-12T08:07:12.860Z,10.50
2019-02-12T08:12:39.665Z,8.40
2019-02-12T08:18:11.367Z,9.43
2019-02-12T08:23:20.492Z,8.23
2019-02-12T08:28:20.421Z,8.17
2019-02-12T08:33:41.813Z,10.70
2019-02-12T08:39:01.629Z,6.63
2019-02-12T08:44:26.067Z,6.93
2019-02-12T08:49:38.381Z,10.77
2019-02-12T08:55:00.486Z,9.20
2019-02-12T09:00:26.952Z,9.33
2019-02-12T09:05:45.086Z,11.60
2019-02-12T09:11:20.824Z,9.97
2019-02-12T09:16:57.820Z,7.57
2019-02-12T09:22:54.770Z,6.77
2019-02-12T09:28:23.553Z,6.67
2019-02-12T09:33:34.786Z,10.77
2019-02-12T09:38:45.124Z,10.90
2019-02-12T09:44:17.771Z,8.73
2019-02-12T09:49:42.510Z,10.57
2019-02-12T09:55:03.133Z,9.27
2019-02-12T10:00:19.363Z,16.33
2019-02-12T10:05:52.514Z,10.27
2019-02-12T10:11:18.428Z,9.07
2019-02-12T10:16:51.139Z,11.40
2019-02-12T10:22:09.368Z,13.43
2019-02-12T10:27:07.659Z,11.07
2019-02-12T10:31:51.736Z,10.33
2019-02-12T10:36:37.754Z,10.07
2019-02-12T10:41:23.593Z,12.33
2019-02-12T10:46:09.603Z,8.70
2019-02-12T10:50:55.552Z,12.00
2019-02-12T10:55:41.650Z,12.33
2019-02-12T11:00:27.517Z,11.73
2019-02-12T11:05:13.579Z,9.67
2019-02-12T11:10:00.343Z,10.30
2019-02-12T11:14:46.229Z,12.97
2019-02-12T11:19:32.583Z,15.27
2019-02-12T11:24:18.794Z,10.47
2019-02-12T11:29:04.757Z,12.13
2019-02-12T11:33:50.502Z,10.10
2019-02-12T11:38:36.386Z,8.33
2019-02-12T11:43:22.165Z,8.50
2019-02-12T11:48:07.956Z,6.10
2019-02-12T11:52:53.680Z,4.77
2019-02-12T11:57:39.481Z,4.47
2019-02-12T12:02:28.818Z,8.60
2019-02-12T12:07:14.657Z,10.87
2019-02-12T12:12:00.417Z,6.95
2019-02-12T12:16:46.225Z,6.17
2019-02-12T12:21:32.164Z,4.03
2019-02-12T12:26:18.026Z,5.77
2019-02-12T12:31:03.788Z,6.13
2019-02-12T12:35:49.588Z,5.27
2019-02-12T12:40:35.342Z,5.50
2019-02-12T12:45:21.279Z,7.37
2019-02-12T12:50:08.447Z,7.03
2019-02-12T12:54:59.702Z,9.70
2019-02-12T12:59:41.668Z,9.50
2019-02-12T13:04:27.659Z,7.77
2019-02-12T13:09:13.516Z,6.83
2019-02-12T13:13:59.356Z,8.07
2019-02-12T13:18:45.072Z,8.63
2019-02-12T13:23:30.973Z,8.67
2019-02-12T13:28:16.777Z,7.60
2019-02-12T13:33:02.525Z,6.47
2019-02-12T13:37:48.266Z,7.03
2019-02-12T13:42:34.038Z,6.87
2019-02-12T13:47:19.788Z,5.23
2019-02-12T13:52:05.750Z,7.70
2019-02-12T13:56:51.597Z,9.17
2019-02-12T14:01:37.477Z,9.77
2019-02-12T14:06:23.562Z,7.53
2019-02-12T14:11:09.469Z,6.47
2019-02-12T14:15:55.186Z,7.33
2019-02-12T14:20:41.084Z,10.63
2019-02-12T14:25:26.860Z,9.40
2019-02-12T14:30:14.271Z,7.83
2019-02-12T14:35:00.315Z,10.03
2019-02-12T14:39:46.066Z,5.17
2019-02-12T14:44:31.959Z,8.30
2019-02-12T14:49:17.747Z,5.33
2019-02-12T14:54:03.494Z,6.17
2019-02-12T14:58:49.372Z,7.93
2019-02-12T15:03:35.447Z,8.27
2019-02-12T15:08:21.247Z,7.23
2019-02-12T15:13:07.055Z,8.57
2019-02-12T15:17:53.165Z,7.20
2019-02-12T15:22:38.930Z,10.67
2019-02-12T15:27:24.821Z,7.63
2019-02-12T15:32:10.866Z,4.93
2019-02-12T15:36:56.757Z,14.07
2019-02-12T15:41:42.721Z,6.63
2019-02-12T15:46:28.480Z,6.53
2019-02-12T15:51:14.251Z,7.50
2019-02-12T15:56:00.087Z,6.47
2019-02-12T16:00:46.170Z,6.37
2019-02-12T16:05:32.817Z,5.93
2019-02-12T16:10:19.827Z,9.17
2019-02-12T16:15:06.367Z,8.93
2019-02-12T16:19:52.360Z,8.43
2019-02-12T16:24:38.102Z,9.10
2019-02-12T16:29:23.845Z,7.03
2019-02-12T16:34:11.073Z,11.33
2019-02-12T16:38:56.990Z,11.10
2019-02-12T16:43:42.742Z,11.30
2019-02-12T16:48:29.595Z,13.60
2019-02-12T16:53:15.329Z,14.27
2019-02-12T16:58:01.176Z,28.17
2019-02-12T17:02:47.109Z,43.67
2019-02-12T17:07:33.079Z,29.63
2019-02-12T17:12:18.864Z,24.47
2019-02-12T17:17:04.747Z,17.03
2019-02-12T17:21:50.463Z,20.07
2019-02-12T17:26:36.313Z,19.80
2019-02-12T17:31:22.116Z,23.00
2019-02-12T17:36:08.101Z,22.43
2019-02-12T17:40:53.961Z,27.57
2019-02-12T17:45:39.832Z,32.03
2019-02-12T17:50:25.870Z,24.17
2019-02-12T17:55:11.979Z,30.07
2019-02-12T17:59:58.057Z,20.23
2019-02-12T18:04:43.974Z,35.53
2019-02-12T18:09:29.726Z,23.40
2019-02-12T18:14:15.523Z,32.00
2019-02-12T18:19:01.344Z,22.83
2019-02-12T18:23:47.290Z,20.83
2019-02-12T18:28:33.478Z,27.80
2019-02-12T18:33:19.597Z,26.67
2019-02-12T18:38:05.654Z,21.80
2019-02-12T18:42:51.406Z,21.47
2019-02-12T18:47:37.369Z,21.93
2019-02-12T18:52:23.494Z,26.03
2019-02-12T18:57:09.399Z,26.93
2019-02-12T19:01:55.199Z,23.40
2019-02-12T19:06:41.210Z,21.67
2019-02-12T19:11:27.122Z,21.50
2019-02-12T19:16:13.089Z,23.53
2019-02-12T19:20:59.001Z,18.90
2019-02-12T19:25:45.026Z,21.60
2019-02-12T19:30:31.229Z,16.17
2019-02-12T19:35:17.201Z,22.30
2019-02-12T19:40:03.030Z,36.00
2019-02-12T19:44:49.021Z,24.90
2019-02-12T19:49:35.129Z,21.40
2019-02-12T19:54:21.695Z,26.07
2019-02-12T19:59:07.759Z,26.00
2019-02-12T20:03:53.837Z,28.90
2019-02-12T20:08:40.532Z,28.67
2019-02-12T20:13:26.542Z,40.90
2019-02-12T20:18:12.596Z,39.77
2019-02-12T20:22:58.823Z,35.97
2019-02-12T20:27:45.010Z,29.53
2019-02-12T20:32:31.302Z,41.50
2019-02-12T20:37:17.397Z,27.73
2019-02-12T20:42:03.421Z,25.13
2019-02-12T20:46:49.787Z,21.90
2019-02-12T20:51:36.461Z,19.77
2019-02-12T20:56:22.425Z,17.77
2019-02-12T21:01:08.760Z,17.13
2019-02-12T21:05:54.749Z,19.63
2019-02-12T21:10:40.668Z,22.90
2019-02-12T21:15:26.570Z,23.23
2019-02-12T21:20:12.655Z,26.87
2019-02-12T21:24:58.927Z,37.20
2019-02-12T21:29:44.961Z,31.10
2019-02-12T21:34:31.593Z,30.87
2019-02-12T21:39:20.777Z,33.20
2019-02-12T21:44:09.933Z,24.90
2019-02-12T21:48:56.033Z,28.77
2019-02-12T21:53:41.912Z,20.63
2019-02-12T21:58:27.909Z,20.97
2019-02-12T22:03:13.834Z,21.20
2019-02-12T22:07:59.679Z,23.50
2019-02-12T22:12:45.701Z,22.93
2019-02-12T22:17:31.668Z,20.70
2019-02-12T22:22:17.561Z,22.40
2019-02-12T22:27:03.634Z,19.07
2019-02-12T22:31:49.513Z,18.30
2019-02-12T22:36:35.406Z,19.13
2019-02-12T22:41:21.420Z,23.33
2019-02-12T22:46:08.433Z,21.20
2019-02-12T22:50:54.367Z,19.97
2019-02-12T22:55:40.309Z,20.03
2019-02-12T23:00:40.011Z,19.93
2019-02-12T23:05:26.077Z,17.67
2019-02-12T23:10:12.127Z,19.03
2019-02-12T23:14:58.480Z,22.03
2019-02-12T23:19:44.524Z,27.20
2019-02-12T23:24:30.444Z,30.43
2019-02-12T23:29:16.679Z,23.57
2019-02-12T23:34:02.614Z,24.83
2019-02-12T23:38:48.372Z,26.80
2019-02-12T23:43:34.233Z,25.30
2019-02-12T23:48:20.038Z,26.33
2019-02-12T23:53:05.983Z,27.27
2019-02-12T23:57:51.857Z,22.53
